createdAt,value
2023-06-27T00:00:41.282Z,75.01
2023-06-27T00:01:41.328Z,74.90
2023-06-27T00:02:41.288Z,75.01
2023-06-27T00:03:41.344Z,74.70
2023-06-27T00:04:41.229Z,75.01
2023-06-27T00:05:41.491Z,74.70
2023-06-27T00:06:41.235Z,74.80
2023-06-27T00:07:41.195Z,74.90
2023-06-27T00:08:41.204Z,74.90
2023-06-27T00:09:41.206Z,75.01
2023-06-27T00:10:41.167Z,75.01
2023-06-27T00:11:41.165Z,75.31
2023-06-27T00:12:41.142Z,75.10
2023-06-27T00:13:41.156Z,75.41
2023-06-27T00:14:41.139Z,75.45
2023-06-27T00:15:41.312Z,75.31
2023-06-27T00:16:41.104Z,75.21
2023-06-27T00:17:41.120Z,75.34
2023-06-27T00:18:41.076Z,75.34
2023-06-27T00:19:41.081Z,75.95
2023-06-27T00:20:41.053Z,75.85
2023-06-27T00:21:41.051Z,75.75
2023-06-27T00:22:41.046Z,75.75
2023-06-27T00:23:41.022Z,75.55
2023-06-27T00:24:41.019Z,75.75
2023-06-27T00:25:41.164Z,76.15
2023-06-27T00:26:41.023Z,76.35
2023-06-27T00:27:40.982Z,76.70
2023-06-27T00:28:40.975Z,76.46
2023-06-27T00:29:40.967Z,75.95
2023-06-27T00:30:40.953Z,76.05
2023-06-27T00:31:40.973Z,76.35
2023-06-27T00:32:40.980Z,76.66
2023-06-27T00:33:40.904Z,76.35
2023-06-27T00:34:40.891Z,76.05
2023-06-27T00:35:41.239Z,76.35
2023-06-27T00:36:40.906Z,76.97
2023-06-27T00:37:40.894Z,76.76
2023-06-27T00:38:40.885Z,76.66
2023-06-27T00:39:40.849Z,76.66
2023-06-27T00:40:40.851Z,76.05
2023-06-27T00:41:40.847Z,76.35
2023-06-27T00:42:40.803Z,77.06
2023-06-27T00:43:40.792Z,77.00
2023-06-27T00:44:40.805Z,77.17
2023-06-27T00:45:41.155Z,76.79
2023-06-27T00:46:40.769Z,77.37
2023-06-27T00:47:40.762Z,77.17
2023-06-27T00:48:40.758Z,77.17
2023-06-27T00:49:40.731Z,76.97
2023-06-27T00:50:40.718Z,77.06
2023-06-27T00:51:40.708Z,77.37
2023-06-27T00:52:40.718Z,77.47
2023-06-27T00:53:40.681Z,76.39
2023-06-27T00:54:40.694Z,77.20
2023-06-27T00:55:41.016Z,77.40
2023-06-27T00:56:40.674Z,77.20
2023-06-27T00:57:40.634Z,77.20
2023-06-27T00:58:40.687Z,77.20
2023-06-27T00:59:40.613Z,77.00
2023-06-27T01:00:40.618Z,76.50
2023-06-27T01:01:40.641Z,77.26
2023-06-27T01:02:40.637Z,77.20
2023-06-27T01:03:40.667Z,77.17
2023-06-27T01:04:40.556Z,76.76
2023-06-27T01:05:40.811Z,76.86
2023-06-27T01:06:40.539Z,76.35
2023-06-27T01:07:40.556Z,76.97
2023-06-27T01:08:40.514Z,76.86
2023-06-27T01:09:40.504Z,76.46
2023-06-27T01:10:40.496Z,76.97
2023-06-27T01:11:40.529Z,76.59
2023-06-27T01:12:40.470Z,76.39
2023-06-27T01:13:40.487Z,77.00
2023-06-27T01:14:40.458Z,76.76
2023-06-27T01:15:40.620Z,76.70
2023-06-27T01:16:40.428Z,76.70
2023-06-27T01:17:40.488Z,77.10
2023-06-27T01:18:40.439Z,77.30
2023-06-27T01:19:40.409Z,77.50
2023-06-27T01:20:40.396Z,77.30
2023-06-27T01:21:40.383Z,77.84
2023-06-27T01:22:40.360Z,77.61
2023-06-27T01:23:40.360Z,77.81
2023-06-27T01:24:40.375Z,77.75
2023-06-27T01:25:40.605Z,77.75
2023-06-27T01:26:40.342Z,78.15
2023-06-27T01:27:40.314Z,78.05
2023-06-27T01:28:40.291Z,78.25
2023-06-27T01:29:40.284Z,78.15
2023-06-27T01:30:40.309Z,78.35
2023-06-27T01:31:40.286Z,78.25
2023-06-27T01:32:40.293Z,78.15
2023-06-27T01:33:40.263Z,78.35
2023-06-27T01:34:40.247Z,78.15
2023-06-27T01:35:40.387Z,78.05
2023-06-27T01:36:40.255Z,78.05
2023-06-27T01:37:40.221Z,78.35
2023-06-27T01:38:40.206Z,78.39
2023-06-27T01:39:40.191Z,78.55
2023-06-27T01:40:40.170Z,78.69
2023-06-27T01:41:40.187Z,78.96
2023-06-27T01:42:40.159Z,78.55
2023-06-27T01:43:40.152Z,78.86
2023-06-27T01:44:40.123Z,78.69
2023-06-27T01:45:40.374Z,78.79
2023-06-27T01:46:40.128Z,79.10
2023-06-27T01:47:40.177Z,79.20
2023-06-27T01:48:40.077Z,78.89
2023-06-27T01:49:40.096Z,79.20
2023-06-27T01:50:40.069Z,79.06
2023-06-27T01:51:40.048Z,79.20
2023-06-27T01:52:40.076Z,78.79
2023-06-27T01:53:40.034Z,78.89
2023-06-27T01:54:40.014Z,79.40
2023-06-27T01:55:40.273Z,79.40
2023-06-27T01:56:40.044Z,78.69
2023-06-27T01:57:40.011Z,78.69
2023-06-27T01:58:39.968Z,79.50
2023-06-27T01:59:39.966Z,79.60
2023-06-27T02:00:39.952Z,79.50
2023-06-27T02:01:39.985Z,79.60
2023-06-27T02:02:40.086Z,79.24
2023-06-27T02:03:39.946Z,79.30
2023-06-27T02:04:39.901Z,79.85
2023-06-27T02:05:40.237Z,80.01
2023-06-27T02:06:39.892Z,79.60
2023-06-27T02:07:39.890Z,79.85
2023-06-27T02:08:39.870Z,79.80
2023-06-27T02:09:39.859Z,80.72
2023-06-27T02:10:39.877Z,80.65
2023-06-27T02:11:39.849Z,80.41
2023-06-27T02:12:39.823Z,80.41
2023-06-27T02:13:39.817Z,80.45
2023-06-27T02:14:39.800Z,80.25
2023-06-27T02:15:40.026Z,80.25
2023-06-27T02:16:39.770Z,80.55
2023-06-27T02:17:39.813Z,80.25
2023-06-27T02:18:39.771Z,80.35
2023-06-27T02:19:39.755Z,80.86
2023-06-27T02:20:39.720Z,80.76
2023-06-27T02:21:39.750Z,80.45
2023-06-27T02:22:39.720Z,80.96
2023-06-27T02:23:39.692Z,81.06
2023-06-27T02:24:39.720Z,80.96
2023-06-27T02:25:39.906Z,80.86
2023-06-27T02:26:39.661Z,81.77
2023-06-27T02:27:39.666Z,81.06
2023-06-27T02:28:39.686Z,80.86
2023-06-27T02:29:39.644Z,81.06
2023-06-27T02:30:39.640Z,80.86
2023-06-27T02:31:39.630Z,81.26
2023-06-27T02:32:39.664Z,81.26
2023-06-27T02:33:39.576Z,81.57
2023-06-27T02:34:39.603Z,81.26
2023-06-27T02:35:39.816Z,80.86
2023-06-27T02:36:39.562Z,81.26
2023-06-27T02:37:39.551Z,80.96
2023-06-27T02:38:39.519Z,81.26
2023-06-27T02:39:39.518Z,80.76
2023-06-27T02:40:39.537Z,80.86
2023-06-27T02:41:39.505Z,80.86
2023-06-27T02:42:39.501Z,80.86
2023-06-27T02:43:39.466Z,81.06
2023-06-27T02:44:39.453Z,80.76
2023-06-27T02:45:39.661Z,80.86
2023-06-27T02:46:39.481Z,81.26
2023-06-27T02:47:39.456Z,81.57
2023-06-27T02:48:39.410Z,80.76
2023-06-27T02:49:39.423Z,81.06
2023-06-27T02:50:39.396Z,80.76
2023-06-27T02:51:39.391Z,80.96
2023-06-27T02:52:39.392Z,80.96
2023-06-27T02:53:39.369Z,81.77
2023-06-27T02:54:39.347Z,81.26
2023-06-27T02:55:39.639Z,81.37
2023-06-27T02:56:39.353Z,81.77
2023-06-27T02:57:39.313Z,81.97
2023-06-27T02:58:39.309Z,81.97
2023-06-27T02:59:39.286Z,81.97
2023-06-27T03:00:39.272Z,82.17
2023-06-27T03:01:39.347Z,82.28
2023-06-27T03:02:39.333Z,81.87
2023-06-27T03:03:39.333Z,81.67
2023-06-27T03:04:39.311Z,82.07
2023-06-27T03:05:39.453Z,81.46
2023-06-27T03:06:39.251Z,81.97
2023-06-27T03:07:39.197Z,81.46
2023-06-27T03:08:39.270Z,81.97
2023-06-27T03:09:39.197Z,81.16
2023-06-27T03:10:39.192Z,81.46
2023-06-27T03:11:39.170Z,81.46
2023-06-27T03:12:39.177Z,82.07
2023-06-27T03:13:39.141Z,81.77
2023-06-27T03:14:39.122Z,81.67
2023-06-27T03:15:39.446Z,81.87
2023-06-27T03:16:39.133Z,81.97
2023-06-27T03:17:41.251Z,82.17
2023-06-27T03:18:39.118Z,82.07
2023-06-27T03:19:44.667Z,81.26
2023-06-27T03:20:40.101Z,81.77
2023-06-27T03:21:39.046Z,81.37
2023-06-27T03:22:39.063Z,82.17
2023-06-27T03:23:39.032Z,81.46
2023-06-27T03:24:39.020Z,81.67
2023-06-27T03:25:39.382Z,82.28
2023-06-27T03:26:39.033Z,81.67
2023-06-27T03:27:39.007Z,82.38
2023-06-27T03:28:38.976Z,82.07
2023-06-27T03:29:38.981Z,82.48
2023-06-27T03:30:38.958Z,82.48
2023-06-27T03:31:38.966Z,81.67
2023-06-27T03:32:39.011Z,82.38
2023-06-27T03:33:38.934Z,81.93
2023-06-27T03:34:38.925Z,81.93
2023-06-27T03:35:39.129Z,82.34
2023-06-27T03:36:38.906Z,82.54
2023-06-27T03:37:38.883Z,82.24
2023-06-27T03:38:38.863Z,82.34
2023-06-27T03:39:38.863Z,82.44
2023-06-27T03:40:38.854Z,82.44
2023-06-27T03:41:38.865Z,82.54
2023-06-27T03:42:38.815Z,82.24
2023-06-27T03:43:38.832Z,81.63
2023-06-27T03:44:38.793Z,82.03
2023-06-27T03:45:39.022Z,82.14
2023-06-27T03:46:38.768Z,82.14
2023-06-27T03:47:38.794Z,82.03
2023-06-27T03:48:38.773Z,81.63
2023-06-27T03:49:38.753Z,82.44
2023-06-27T03:50:38.771Z,82.40
2023-06-27T03:51:38.717Z,82.70
2023-06-27T03:52:38.704Z,82.60
2023-06-27T03:53:38.691Z,83.01
2023-06-27T03:54:38.695Z,82.10
2023-06-27T03:55:39.249Z,81.90
2023-06-27T03:56:38.673Z,82.20
2023-06-27T03:57:38.671Z,82.20
2023-06-27T03:58:38.640Z,81.49
2023-06-27T03:59:38.634Z,81.99
2023-06-27T04:00:38.658Z,81.90
2023-06-27T04:01:38.635Z,82.10
2023-06-27T04:02:38.632Z,82.10
2023-06-27T04:03:38.819Z,82.10
2023-06-27T04:04:38.717Z,81.69
2023-06-27T04:05:39.052Z,82.20
2023-06-27T04:06:38.571Z,82.50
2023-06-27T04:07:38.563Z,82.70
2023-06-27T04:08:38.545Z,82.81
2023-06-27T04:09:38.567Z,82.70
2023-06-27T04:10:38.508Z,82.60
2023-06-27T04:11:38.547Z,83.21
2023-06-27T04:12:38.501Z,82.60
2023-06-27T04:13:38.514Z,83.07
2023-06-27T04:14:38.487Z,83.58
2023-06-27T04:15:38.839Z,83.68
2023-06-27T04:16:38.468Z,82.56
2023-06-27T04:17:38.505Z,82.56
2023-06-27T04:18:38.425Z,82.56
2023-06-27T04:19:38.417Z,82.06
2023-06-27T04:20:38.404Z,81.55
2023-06-27T04:21:38.420Z,82.06
2023-06-27T04:22:38.393Z,81.96
2023-06-27T04:23:38.369Z,81.85
2023-06-27T04:24:38.359Z,82.26
2023-06-27T04:25:38.734Z,81.65
2023-06-27T04:26:38.330Z,82.16
2023-06-27T04:27:38.356Z,81.92
2023-06-27T04:28:38.314Z,82.22
2023-06-27T04:29:38.362Z,82.53
2023-06-27T04:30:38.293Z,82.62
2023-06-27T04:31:38.342Z,82.42
2023-06-27T04:32:38.346Z,81.51
2023-06-27T04:33:38.275Z,81.71
2023-06-27T04:34:38.269Z,82.22
2023-06-27T04:35:38.289Z,82.42
2023-06-27T04:36:38.248Z,83.23
2023-06-27T04:37:38.238Z,82.83
2023-06-27T04:38:38.201Z,82.16
2023-06-27T04:39:38.237Z,82.02
2023-06-27T04:40:38.179Z,82.62
2023-06-27T04:41:38.175Z,82.12
2023-06-27T04:42:38.170Z,82.28
2023-06-27T04:43:38.224Z,81.78
2023-06-27T04:44:38.135Z,82.08
2023-06-27T04:45:38.440Z,82.22
2023-06-27T04:46:38.112Z,81.78
2023-06-27T04:47:38.157Z,82.12
2023-06-27T04:48:38.092Z,81.48
2023-06-27T04:49:38.101Z,82.08
2023-06-27T04:50:38.074Z,82.08
2023-06-27T04:51:38.055Z,81.78
2023-06-27T04:52:38.046Z,81.48
2023-06-27T04:53:38.048Z,82.18
2023-06-27T04:54:38.069Z,82.08
2023-06-27T04:55:38.249Z,82.28
2023-06-27T04:56:38.019Z,82.39
2023-06-27T04:57:37.990Z,82.79
2023-06-27T04:58:37.980Z,82.08
2023-06-27T04:59:38.003Z,81.98
2023-06-27T05:00:38.007Z,82.28
2023-06-27T05:01:37.960Z,82.39
2023-06-27T05:02:48.840Z,82.49
2023-06-27T05:03:39.592Z,82.39
2023-06-27T05:04:37.944Z,82.49
2023-06-27T05:05:38.019Z,82.69
2023-06-27T05:06:37.929Z,82.75
2023-06-27T05:07:37.879Z,82.55
2023-06-27T05:08:37.882Z,82.55
2023-06-27T05:09:37.863Z,82.35
2023-06-27T05:10:37.865Z,82.89
2023-06-27T05:11:37.861Z,82.04
2023-06-27T05:12:37.825Z,82.65
2023-06-27T05:13:37.821Z,82.95
2023-06-27T05:14:37.799Z,82.65
2023-06-27T05:15:37.829Z,83.46
2023-06-27T05:16:37.785Z,83.15
2023-06-27T05:17:37.814Z,82.95
2023-06-27T05:18:37.754Z,83.15
2023-06-27T05:19:37.738Z,83.05
2023-06-27T05:20:37.800Z,82.65
2023-06-27T05:21:37.728Z,83.26
2023-06-27T05:22:37.710Z,83.36
2023-06-27T05:23:37.701Z,82.85
2023-06-27T05:24:37.686Z,83.46
2023-06-27T05:25:37.851Z,83.12
2023-06-27T05:26:37.679Z,83.22
2023-06-27T05:27:37.674Z,83.22
2023-06-27T05:28:37.641Z,83.01
2023-06-27T05:29:37.644Z,83.38
2023-06-27T05:30:37.787Z,83.34
2023-06-27T05:31:37.609Z,82.29
2023-06-27T05:32:37.689Z,81.99
2023-06-27T05:33:37.638Z,81.75
2023-06-27T05:34:37.591Z,81.71
2023-06-27T05:35:37.719Z,79.90
2023-06-27T05:36:37.556Z,80.10
2023-06-27T05:37:37.550Z,80.74
2023-06-27T05:38:37.553Z,80.88
2023-06-27T05:39:37.529Z,81.08
2023-06-27T05:40:37.525Z,81.15
2023-06-27T05:41:37.518Z,81.04
2023-06-27T05:42:37.526Z,80.97
2023-06-27T05:43:37.514Z,79.76
2023-06-27T05:44:37.481Z,79.38
2023-06-27T05:45:37.621Z,78.38
2023-06-27T05:46:37.444Z,77.94
2023-06-27T05:47:37.508Z,77.59
2023-06-27T05:48:37.458Z,76.25
2023-06-27T05:49:37.451Z,76.05
2023-06-27T05:50:37.426Z,75.35
2023-06-27T05:51:37.423Z,75.79
2023-06-27T05:52:37.381Z,76.45
2023-06-27T05:53:37.369Z,76.15
2023-06-27T05:54:37.374Z,75.49
2023-06-27T05:55:37.383Z,75.49
2023-06-27T05:56:37.338Z,76.09
2023-06-27T05:57:37.313Z,76.49
2023-06-27T05:58:37.326Z,75.72
2023-06-27T05:59:37.305Z,76.73
2023-06-27T06:00:37.311Z,77.53
2023-06-27T06:01:37.327Z,76.83
2023-06-27T06:02:40.159Z,77.37
2023-06-27T06:03:37.329Z,77.50
2023-06-27T06:04:37.263Z,77.91
2023-06-27T06:05:37.255Z,78.11
2023-06-27T06:06:37.245Z,78.75
2023-06-27T06:07:37.210Z,78.35
2023-06-27T06:08:37.226Z,78.58
2023-06-27T06:09:37.197Z,77.94
2023-06-27T06:10:37.188Z,77.50
2023-06-27T06:11:37.189Z,76.86
2023-06-27T06:12:37.202Z,75.85
2023-06-27T06:13:37.149Z,75.51
2023-06-27T06:14:37.133Z,75.31
2023-06-27T06:15:37.143Z,75.38
2023-06-27T06:16:37.119Z,74.60
2023-06-27T06:17:37.177Z,73.50
2023-06-27T06:18:37.088Z,71.86
2023-06-27T06:19:37.087Z,72.36
2023-06-27T06:20:37.068Z,71.93
2023-06-27T06:21:37.078Z,72.13
2023-06-27T06:22:37.055Z,72.23
2023-06-27T06:23:37.070Z,71.33
2023-06-27T06:24:37.037Z,71.53
2023-06-27T06:25:37.077Z,71.96
2023-06-27T06:26:37.004Z,72.06
2023-06-27T06:27:37.003Z,72.27
2023-06-27T06:28:36.986Z,71.77
2023-06-27T06:29:36.980Z,72.97
2023-06-27T06:30:36.970Z,71.86
2023-06-27T06:31:36.953Z,72.16
2023-06-27T06:32:36.972Z,72.06
2023-06-27T06:33:36.942Z,72.27
2023-06-27T06:34:36.936Z,72.77
2023-06-27T06:35:36.914Z,72.47
2023-06-27T06:36:36.920Z,72.63
2023-06-27T06:37:37.001Z,73.10
2023-06-27T06:38:36.870Z,72.09
2023-06-27T06:39:36.862Z,72.06
2023-06-27T06:40:36.846Z,70.86
2023-06-27T06:41:36.847Z,71.96
2023-06-27T06:42:36.824Z,71.23
2023-06-27T06:43:36.832Z,70.92
2023-06-27T06:44:36.818Z,70.06
2023-06-27T06:45:36.789Z,70.36
2023-06-27T06:46:36.880Z,71.66
2023-06-27T06:47:36.895Z,71.46
2023-06-27T06:48:36.761Z,71.06
2023-06-27T06:49:36.760Z,70.09
2023-06-27T06:50:36.759Z,71.23
2023-06-27T06:51:36.720Z,71.03
2023-06-27T06:52:36.757Z,71.39
2023-06-27T06:53:36.718Z,72.36
2023-06-27T06:54:36.690Z,71.56
2023-06-27T06:55:36.690Z,70.06
2023-06-27T06:56:36.670Z,69.56
2023-06-27T06:57:36.666Z,70.73
2023-06-27T06:58:36.675Z,70.69
2023-06-27T06:59:36.634Z,70.66
2023-06-27T07:00:36.682Z,69.82
2023-06-27T07:01:36.706Z,68.43
2023-06-27T07:02:36.648Z,65.96
2023-06-27T07:03:36.639Z,67.96
2023-06-27T07:04:36.642Z,67.66
2023-06-27T07:05:36.608Z,67.69
2023-06-27T07:06:36.562Z,69.89
2023-06-27T07:07:36.572Z,68.62
2023-06-27T07:08:36.534Z,70.32
2023-06-27T07:09:36.708Z,70.32
2023-06-27T07:10:36.526Z,69.82
2023-06-27T07:11:36.500Z,68.26
2023-06-27T07:12:36.500Z,69.66
2023-06-27T07:13:36.477Z,70.03
2023-06-27T07:14:36.506Z,67.86
2023-06-27T07:15:36.636Z,67.76
2023-06-27T07:16:36.462Z,67.79
2023-06-27T07:17:36.490Z,68.19
2023-06-27T07:18:36.427Z,69.29
2023-06-27T07:19:36.414Z,69.69
2023-06-27T07:20:36.430Z,70.39
2023-06-27T07:21:36.461Z,69.69
2023-06-27T07:22:36.430Z,68.69
2023-06-27T07:23:36.376Z,66.92
2023-06-27T07:24:36.356Z,67.85
2023-06-27T07:25:36.617Z,69.86
2023-06-27T07:26:36.338Z,69.96
2023-06-27T07:27:36.335Z,69.76
2023-06-27T07:28:36.323Z,70.16
2023-06-27T07:29:36.332Z,70.73
2023-06-27T07:30:36.322Z,71.86
2023-06-27T07:31:36.370Z,71.23
2023-06-27T07:32:36.336Z,70.43
2023-06-27T07:33:36.281Z,69.93
2023-06-27T07:34:36.250Z,69.42
2023-06-27T07:35:36.238Z,69.73
2023-06-27T07:36:36.257Z,70.73
2023-06-27T07:37:36.220Z,70.12
2023-06-27T07:38:36.214Z,70.12
2023-06-27T07:39:36.197Z,70.32
2023-06-27T07:40:36.197Z,68.73
2023-06-27T07:41:36.193Z,68.62
2023-06-27T07:42:36.290Z,67.72
2023-06-27T07:43:36.169Z,68.76
2023-06-27T07:44:36.136Z,69.46
2023-06-27T07:45:36.181Z,70.62
2023-06-27T07:46:36.122Z,70.83
2023-06-27T07:47:36.131Z,70.83
2023-06-27T07:48:36.122Z,70.43
2023-06-27T07:49:36.104Z,70.79
2023-06-27T07:50:36.075Z,69.19
2023-06-27T07:51:36.057Z,68.52
2023-06-27T07:52:36.227Z,68.22
2023-06-27T07:53:36.064Z,67.19
2023-06-27T07:54:36.023Z,68.22
2023-06-27T07:55:36.012Z,68.89
2023-06-27T07:56:36.002Z,67.69
2023-06-27T07:57:36.080Z,68.59
2023-06-27T07:58:35.980Z,66.39
2023-06-27T07:59:35.988Z,67.12
2023-06-27T08:00:36.001Z,67.12
2023-06-27T08:01:36.028Z,67.02
2023-06-27T08:02:36.021Z,67.12
2023-06-27T08:03:35.986Z,66.52
2023-06-27T08:04:35.912Z,66.42
2023-06-27T08:05:35.943Z,66.72
2023-06-27T08:06:35.895Z,66.82
2023-06-27T08:07:35.995Z,67.22
2023-06-27T08:08:35.888Z,67.82
2023-06-27T08:09:35.876Z,67.19
2023-06-27T08:10:35.844Z,67.59
2023-06-27T08:11:35.842Z,67.89
2023-06-27T08:12:35.838Z,67.49
2023-06-27T08:13:35.912Z,67.99
2023-06-27T08:14:35.835Z,68.55
2023-06-27T08:15:35.797Z,69.46
2023-06-27T08:16:35.805Z,68.13
2023-06-27T08:17:35.802Z,67.93
2023-06-27T08:18:35.771Z,66.09
2023-06-27T08:19:35.823Z,67.29
2023-06-27T08:20:35.746Z,67.29
2023-06-27T08:21:35.738Z,65.96
2023-06-27T08:22:35.732Z,64.36
2023-06-27T08:23:35.708Z,66.36
2023-06-27T08:24:35.690Z,67.36
2023-06-27T08:25:35.690Z,63.56
2023-06-27T08:26:35.668Z,63.66
2023-06-27T08:27:35.662Z,64.56
2023-06-27T08:28:35.655Z,64.06
2023-06-27T08:29:35.754Z,64.33
2023-06-27T08:30:35.644Z,63.73
2023-06-27T08:31:35.848Z,63.03
2023-06-27T08:32:35.685Z,63.43
2023-06-27T08:33:35.601Z,64.13
2023-06-27T08:34:35.580Z,64.03
2023-06-27T08:35:35.634Z,64.13
2023-06-27T08:36:35.553Z,64.23
2023-06-27T08:37:35.577Z,64.33
2023-06-27T08:38:35.543Z,65.50
2023-06-27T08:39:35.560Z,63.63
2023-06-27T08:40:35.516Z,65.80
2023-06-27T08:41:35.533Z,65.90
2023-06-27T08:42:35.521Z,64.60
2023-06-27T08:43:35.485Z,65.30
2023-06-27T08:44:35.486Z,64.97
2023-06-27T08:45:35.531Z,65.97
2023-06-27T08:46:35.480Z,65.67
2023-06-27T08:47:35.511Z,65.60
2023-06-27T08:48:35.436Z,64.23
2023-06-27T08:49:35.415Z,65.73
2023-06-27T08:50:35.407Z,65.73
2023-06-27T08:51:38.793Z,65.03
2023-06-27T08:52:35.398Z,65.13
2023-06-27T08:53:35.382Z,63.83
2023-06-27T08:54:35.370Z,64.13
2023-06-27T08:55:35.362Z,63.23
2023-06-27T08:56:35.344Z,63.63
2023-06-27T08:57:35.341Z,63.93
2023-06-27T08:58:35.324Z,64.63
2023-06-27T08:59:35.318Z,64.33
2023-06-27T09:00:35.299Z,64.40
2023-06-27T09:01:35.524Z,63.90
2023-06-27T09:02:35.421Z,63.80
2023-06-27T09:03:35.372Z,63.87
2023-06-27T09:04:35.282Z,64.27
2023-06-27T09:05:35.271Z,61.94
2023-06-27T09:06:35.237Z,60.68
2023-06-27T09:07:35.319Z,61.87
2023-06-27T09:08:35.232Z,63.27
2023-06-27T09:09:35.208Z,61.38
2023-06-27T09:10:35.208Z,62.15
2023-06-27T09:11:35.180Z,60.97
2023-06-27T09:12:35.162Z,63.77
2023-06-27T09:13:35.211Z,61.68
2023-06-27T09:14:35.147Z,63.57
2023-06-27T09:15:35.138Z,63.37
2023-06-27T09:16:35.172Z,63.67
2023-06-27T09:17:35.154Z,62.27
2023-06-27T09:18:35.126Z,60.78
2023-06-27T09:19:35.106Z,59.61
2023-06-27T09:20:35.108Z,59.81
2023-06-27T09:21:35.077Z,61.21
2023-06-27T09:22:35.076Z,60.71
2023-06-27T09:23:35.049Z,60.00
2023-06-27T09:24:35.049Z,61.00
2023-06-27T09:25:35.036Z,60.31
2023-06-27T09:26:35.028Z,61.41
2023-06-27T09:27:35.039Z,61.00
2023-06-27T09:28:35.025Z,62.10
2023-06-27T09:29:34.981Z,60.41
2023-06-27T09:30:35.014Z,60.93
2023-06-27T09:31:35.117Z,62.01
2023-06-27T09:32:34.998Z,60.31
2023-06-27T09:33:34.991Z,61.00
2023-06-27T09:34:34.933Z,62.01
2023-06-27T09:35:59.483Z,60.91
2023-06-27T09:39:34.878Z,63.00
2023-06-27T09:40:34.871Z,61.87
2023-06-27T09:41:34.900Z,61.90
2023-06-27T09:42:34.835Z,61.41
2023-06-27T09:43:34.830Z,60.24
2023-06-27T09:44:34.835Z,60.93
2023-06-27T09:45:34.807Z,63.60
2023-06-27T09:46:34.816Z,60.93
2023-06-27T09:47:34.811Z,61.90
2023-06-27T09:48:34.769Z,62.70
2023-06-27T09:49:34.784Z,61.80
2023-06-27T09:50:34.756Z,63.00
2023-06-27T09:51:34.761Z,63.50
2023-06-27T09:52:34.754Z,63.20
2023-06-27T09:53:34.724Z,63.87
2023-06-27T09:54:34.704Z,62.90
2023-06-27T09:55:34.697Z,63.00
2023-06-27T09:56:34.681Z,63.83
2023-06-27T09:57:34.690Z,62.13
2023-06-27T09:58:34.670Z,62.93
2023-06-27T09:59:35.808Z,62.93
2023-06-27T10:00:34.655Z,65.83
2023-06-27T10:01:34.627Z,65.50
2023-06-27T10:02:34.710Z,63.30
2023-06-27T10:03:34.710Z,61.87
2023-06-27T10:04:40.158Z,61.57
2023-06-27T10:05:38.591Z,61.60
2023-06-27T10:06:35.590Z,61.90
2023-06-27T10:07:34.713Z,62.01
2023-06-27T10:08:34.559Z,62.07
2023-06-27T10:09:34.548Z,61.08
2023-06-27T10:10:34.533Z,60.31
2023-06-27T10:11:34.519Z,61.24
2023-06-27T10:12:34.522Z,63.30
2023-06-27T10:13:34.489Z,61.63
2023-06-27T10:14:34.514Z,61.04
2023-06-27T10:15:34.470Z,63.03
2023-06-27T10:16:34.457Z,61.63
2023-06-27T10:17:34.467Z,63.43
2023-06-27T10:18:34.452Z,63.63
2023-06-27T10:19:34.441Z,64.40
2023-06-27T10:20:34.420Z,64.27
2023-06-27T10:21:34.426Z,63.47
2023-06-27T10:22:34.390Z,60.68
2023-06-27T10:23:34.394Z,61.98
2023-06-27T10:24:34.402Z,62.04
2023-06-27T10:25:34.362Z,62.01
2023-06-27T10:26:34.395Z,61.44
2023-06-27T10:27:34.334Z,62.01
2023-06-27T10:28:34.318Z,60.82
2023-06-27T10:29:34.328Z,60.52
2023-06-27T10:30:37.006Z,60.19
2023-06-27T10:31:34.307Z,58.20
2023-06-27T10:32:34.329Z,58.76
2023-06-27T10:33:34.276Z,58.07
2023-06-27T10:34:34.272Z,58.29
2023-06-27T10:35:34.265Z,57.63
2023-06-27T10:36:34.228Z,56.26
2023-06-27T10:37:34.243Z,57.09
2023-06-27T10:38:34.219Z,58.41
2023-06-27T10:39:34.221Z,59.31
2023-06-27T10:40:34.185Z,58.91
2023-06-27T10:41:34.185Z,60.44
2023-06-27T10:42:34.173Z,59.51
2023-06-27T10:43:34.157Z,59.74
2023-06-27T10:44:34.155Z,57.26
2023-06-27T10:45:34.136Z,58.17
2023-06-27T10:46:34.126Z,59.39
2023-06-27T10:47:34.171Z,60.29
2023-06-27T10:48:34.114Z,60.19
2023-06-27T10:49:34.107Z,58.29
2023-06-27T10:50:34.092Z,58.39
2023-06-27T10:51:34.066Z,60.99
2023-06-27T10:52:34.056Z,61.36
2023-06-27T10:53:34.204Z,61.46
2023-06-27T10:54:34.065Z,62.16
2023-06-27T10:55:34.043Z,61.57
2023-06-27T10:56:34.008Z,61.76
2023-06-27T10:57:34.016Z,60.83
2023-06-27T10:58:34.006Z,60.33
2023-06-27T10:59:34.020Z,60.61
2023-06-27T11:00:34.027Z,63.27
2023-06-27T11:01:33.996Z,59.65
2023-06-27T11:02:34.211Z,59.02
2023-06-27T11:03:34.235Z,59.39
2023-06-27T11:04:34.037Z,58.87
2023-06-27T11:05:34.027Z,59.39
2023-06-27T11:06:33.985Z,59.99
2023-06-27T11:07:33.936Z,56.40
2023-06-27T11:08:33.881Z,54.53
2023-06-27T11:09:33.948Z,54.86
2023-06-27T11:10:33.873Z,56.96
2023-06-27T11:11:33.866Z,59.38
2023-06-27T11:12:33.835Z,58.25
2023-06-27T11:13:33.847Z,58.08
2023-06-27T11:14:33.819Z,59.68
2023-06-27T11:15:33.821Z,60.38
2023-06-27T11:16:33.858Z,59.88
2023-06-27T11:17:33.832Z,60.38
2023-06-27T11:18:33.780Z,60.38
2023-06-27T11:19:33.775Z,60.68
2023-06-27T11:20:33.754Z,61.08
2023-06-27T11:21:33.770Z,61.08
2023-06-27T11:22:33.764Z,60.58
2023-06-27T11:23:33.732Z,60.78
2023-06-27T11:24:33.717Z,60.31
2023-06-27T11:25:33.796Z,58.11
2023-06-27T11:26:35.709Z,60.21
2023-06-27T11:27:33.746Z,61.60
2023-06-27T11:28:33.672Z,60.78
2023-06-27T11:29:33.656Z,61.38
2023-06-27T11:30:33.643Z,58.28
2023-06-27T11:31:33.649Z,58.95
2023-06-27T11:32:34.170Z,57.65
2023-06-27T11:33:33.664Z,58.33
2023-06-27T11:34:33.593Z,59.72
2023-06-27T11:35:33.587Z,57.90
2023-06-27T11:36:33.570Z,56.90
2023-06-27T11:37:33.579Z,58.20
2023-06-27T11:38:33.593Z,57.20
2023-06-27T11:39:33.566Z,57.87
2023-06-27T11:40:33.530Z,59.56
2023-06-27T11:41:33.569Z,59.44
2023-06-27T11:42:33.509Z,55.88
2023-06-27T11:43:33.537Z,56.30
2023-06-27T11:44:33.517Z,55.24
2023-06-27T11:45:33.472Z,54.74
2023-06-27T11:46:33.486Z,55.16
2023-06-27T11:47:33.478Z,56.46
2023-06-27T11:48:33.498Z,56.56
2023-06-27T11:49:34.354Z,56.46
2023-06-27T11:50:33.420Z,56.56
2023-06-27T11:51:33.401Z,56.36
2023-06-27T11:52:33.402Z,55.16
2023-06-27T11:53:33.420Z,56.33
2023-06-27T11:54:33.386Z,58.12
2023-06-27T11:55:33.372Z,57.23
2023-06-27T11:56:33.351Z,57.10
2023-06-27T11:57:33.357Z,57.40
2023-06-27T11:58:33.348Z,56.48
2023-06-27T11:59:33.399Z,54.49
2023-06-27T12:00:33.306Z,54.08
2023-06-27T12:01:33.388Z,55.08
2023-06-27T12:02:33.323Z,53.09
2023-06-27T12:03:33.335Z,52.99
2023-06-27T12:04:33.294Z,52.59
2023-06-27T12:05:33.258Z,53.52
2023-06-27T12:06:33.331Z,52.92
2023-06-27T12:07:33.342Z,52.19
2023-06-27T12:08:33.230Z,52.59
2023-06-27T12:09:33.204Z,51.03
2023-06-27T12:10:33.200Z,53.31
2023-06-27T12:11:33.233Z,54.98
2023-06-27T12:12:33.189Z,55.08
2023-06-27T12:13:33.196Z,54.66
2023-06-27T12:14:33.174Z,52.86
2023-06-27T12:15:33.142Z,52.67
2023-06-27T12:16:33.126Z,50.27
2023-06-27T12:17:33.175Z,51.00
2023-06-27T12:18:33.104Z,51.70
2023-06-27T12:19:33.105Z,52.59
2023-06-27T12:20:33.088Z,55.18
2023-06-27T12:21:33.137Z,55.31
2023-06-27T12:22:33.082Z,54.49
2023-06-27T12:23:33.113Z,55.28
2023-06-27T12:24:33.044Z,53.49
2023-06-27T12:25:33.042Z,54.79
2023-06-27T12:26:33.060Z,54.58
2023-06-27T12:27:33.030Z,52.89
2023-06-27T12:28:32.999Z,54.01
2023-06-27T12:29:33.100Z,53.11
2023-06-27T12:30:32.983Z,52.12
2023-06-27T12:31:33.051Z,54.51
2023-06-27T12:32:33.025Z,53.61
2023-06-27T12:33:32.980Z,51.32
2023-06-27T12:34:34.017Z,54.68
2023-06-27T12:35:32.929Z,51.37
2023-06-27T12:36:32.925Z,50.18
2023-06-27T12:37:32.904Z,50.45
2023-06-27T12:38:32.899Z,52.94
2023-06-27T12:39:32.909Z,52.42
2023-06-27T12:40:32.861Z,52.51
2023-06-27T12:41:32.896Z,52.12
2023-06-27T12:42:32.844Z,51.52
2023-06-27T12:43:32.891Z,50.43
2023-06-27T12:44:32.825Z,51.42
2023-06-27T12:45:35.675Z,52.12
2023-06-27T12:46:32.821Z,54.28
2023-06-27T12:47:32.823Z,54.78
2023-06-27T12:48:32.782Z,51.07
2023-06-27T12:49:32.808Z,52.07
2023-06-27T12:50:32.763Z,50.68
2023-06-27T12:51:32.744Z,50.58
2023-06-27T12:52:32.756Z,52.74
2023-06-27T12:53:32.751Z,51.84
2023-06-27T12:54:32.735Z,50.68
2023-06-27T12:55:32.713Z,50.98